createdAt,value
2022-08-09T00:00:00.051Z,41.62
2022-08-09T00:02:33.499Z,41.89
2022-08-09T00:05:02.882Z,41.96
2022-08-09T00:07:44.897Z,42.26
2022-08-09T00:10:08.887Z,42.86
2022-08-09T00:12:40.649Z,43.28
2022-08-09T00:15:07.115Z,43.39
2022-08-09T00:18:06.044Z,43.83
2022-08-09T00:20:21.275Z,44.14
2022-08-09T00:22:47.092Z,44.64
2022-08-09T00:25:12.866Z,44.64
2022-08-09T00:27:43.207Z,44.37
2022-08-09T00:30:24.755Z,44.86
2022-08-09T00:32:49.682Z,45.31
2022-08-09T00:35:14.118Z,45.77
2022-08-09T00:37:37.837Z,46.00
2022-08-09T00:40:12.596Z,46.36
2022-08-09T00:44:10.640Z,46.33
2022-08-09T00:45:23.379Z,46.88
2022-08-09T00:47:48.787Z,47.03
2022-08-09T00:50:14.330Z,47.08
2022-08-09T00:52:38.397Z,47.26
2022-08-09T00:55:01.853Z,47.20
2022-08-09T00:57:34.240Z,47.26
2022-08-09T01:00:00.673Z,47.39
2022-08-09T01:02:28.348Z,47.46
2022-08-09T01:04:54.675Z,47.09
2022-08-09T01:07:20.796Z,47.43
2022-08-09T01:10:03.956Z,47.80
2022-08-09T01:12:32.414Z,47.77
2022-08-09T01:14:57.870Z,48.23
2022-08-09T01:17:25.398Z,47.92
2022-08-09T01:20:02.538Z,47.77
2022-08-09T01:22:54.836Z,48.33
2022-08-09T01:25:22.921Z,48.24
2022-08-09T01:27:47.556Z,48.19
2022-08-09T01:30:28.649Z,48.83
2022-08-09T01:32:58.083Z,49.25
2022-08-09T01:35:37.379Z,49.33
2022-08-09T01:38:08.249Z,49.23
2022-08-09T01:40:38.519Z,49.02
2022-08-09T01:43:04.600Z,49.24
2022-08-09T01:45:31.007Z,48.84
2022-08-09T01:47:54.354Z,48.67
2022-08-09T01:50:17.603Z,48.64
2022-08-09T01:52:41.290Z,48.71
2022-08-09T01:55:07.454Z,48.50
2022-08-09T01:57:45.788Z,48.53
2022-08-09T02:00:34.987Z,48.81
2022-08-09T02:02:55.561Z,48.98
2022-08-09T02:05:20.712Z,49.17
2022-08-09T02:08:41.054Z,49.01
2022-08-09T02:10:50.712Z,49.16
2022-08-09T02:13:14.844Z,49.44
2022-08-09T02:15:50.452Z,49.62
2022-08-09T02:18:13.976Z,49.48
2022-08-09T02:20:39.746Z,49.44
2022-08-09T02:23:07.954Z,49.53
2022-08-09T02:25:41.955Z,49.48
2022-08-09T02:28:11.541Z,49.54
2022-08-09T02:30:44.167Z,49.59
2022-08-09T02:33:14.604Z,49.76
2022-08-09T02:36:03.407Z,50.24
2022-08-09T02:38:28.805Z,50.66
2022-08-09T02:40:53.038Z,50.76
2022-08-09T02:43:19.310Z,50.50
2022-08-09T02:45:45.835Z,50.65
2022-08-09T02:48:30.898Z,50.66
2022-08-09T02:50:56.525Z,51.25
2022-08-09T02:53:26.232Z,51.42
2022-08-09T02:55:57.945Z,51.80
2022-08-09T02:58:37.218Z,51.64
2022-08-09T03:01:04.384Z,51.81
2022-08-09T03:04:05.786Z,52.04
2022-08-09T03:06:15.072Z,52.27
2022-08-09T03:08:39.423Z,52.40
2022-08-09T03:11:04.403Z,51.79
2022-08-09T03:13:27.597Z,51.79
2022-08-09T03:16:09.027Z,52.19
2022-08-09T03:18:32.753Z,52.76
2022-08-09T03:20:56.058Z,52.18
2022-08-09T03:23:24.243Z,52.68
2022-08-09T03:25:56.896Z,52.91
2022-08-09T03:28:26.914Z,53.50
2022-08-09T03:30:50.184Z,53.42
2022-08-09T03:33:18.829Z,53.44
2022-08-09T03:36:11.427Z,53.55
2022-08-09T03:38:29.152Z,53.77
2022-08-09T03:40:53.944Z,54.03
2022-08-09T03:43:17.284Z,54.02
2022-08-09T03:46:04.758Z,54.57
2022-08-09T03:48:30.732Z,54.26
2022-08-09T03:50:55.154Z,54.26
2022-08-09T03:53:20.112Z,55.20
2022-08-09T03:55:44.074Z,55.09
2022-08-09T03:58:17.091Z,55.17
2022-08-09T04:00:44.481Z,54.90
2022-08-09T04:03:08.070Z,55.14
2022-08-09T04:05:40.393Z,54.68
2022-08-09T04:08:03.969Z,55.14
2022-08-09T04:10:29.195Z,55.12
2022-08-09T04:12:53.971Z,55.10
2022-08-09T04:15:42.562Z,54.70
2022-08-09T04:18:00.701Z,54.77
2022-08-09T04:20:24.163Z,54.74
2022-08-09T04:22:50.674Z,54.87
2022-08-09T04:25:14.351Z,55.27
2022-08-09T04:27:41.603Z,55.18
2022-08-09T04:30:05.744Z,54.87
2022-08-09T04:32:33.663Z,55.32
2022-08-09T04:35:01.197Z,54.75
2022-08-09T04:37:24.890Z,54.55
2022-08-09T04:40:11.288Z,54.74
2022-08-09T04:42:42.806Z,54.38
2022-08-09T04:45:06.710Z,54.72
2022-08-09T04:47:45.057Z,55.10
2022-08-09T04:50:13.404Z,54.83
2022-08-09T04:52:36.930Z,54.36
2022-08-09T04:55:02.470Z,54.74
2022-08-09T04:57:58.367Z,54.38
2022-08-09T05:00:16.606Z,54.19
2022-08-09T05:02:41.813Z,53.75
2022-08-09T05:05:09.797Z,53.55
2022-08-09T05:07:33.470Z,53.31
2022-08-09T05:09:56.704Z,53.38
2022-08-09T05:12:22.559Z,53.15
2022-08-09T05:14:47.357Z,53.63
2022-08-09T05:17:15.424Z,53.15
2022-08-09T05:19:56.859Z,53.01
2022-08-09T05:22:36.542Z,53.22
2022-08-09T05:25:03.848Z,53.27
2022-08-09T05:27:27.090Z,52.73
2022-08-09T05:29:55.874Z,52.37
2022-08-09T05:32:19.134Z,52.53
2022-08-09T05:34:46.914Z,52.14
2022-08-09T05:37:11.485Z,52.11
2022-08-09T05:39:36.507Z,51.93
2022-08-09T05:42:07.378Z,51.54
2022-08-09T05:44:32.634Z,51.19
2022-08-09T05:46:57.529Z,50.86
2022-08-09T05:49:33.958Z,50.50
2022-08-09T05:52:06.137Z,50.09
2022-08-09T05:54:29.409Z,49.46
2022-08-09T05:56:54.516Z,48.96
2022-08-09T05:59:19.918Z,48.07
2022-08-09T06:01:43.638Z,47.19
2022-08-09T06:04:08.453Z,46.99
2022-08-09T06:06:31.911Z,46.85
2022-08-09T06:08:55.732Z,46.10
2022-08-09T06:11:19.047Z,46.18
2022-08-09T06:13:47.851Z,46.21
2022-08-09T06:16:11.374Z,46.61
2022-08-09T06:18:36.516Z,46.15
2022-08-09T06:21:01.295Z,46.05
2022-08-09T06:23:24.639Z,45.99
2022-08-09T06:26:08.091Z,46.03
2022-08-09T06:28:32.897Z,45.89
2022-08-09T06:30:56.168Z,46.01
2022-08-09T06:33:39.648Z,45.24
2022-08-09T06:36:04.516Z,45.36
2022-08-09T06:38:35.078Z,45.72
2022-08-09T06:41:01.067Z,45.55
2022-08-09T06:43:26.857Z,45.67
2022-08-09T06:46:06.593Z,46.07
2022-08-09T06:48:34.167Z,46.32
2022-08-09T06:50:58.658Z,46.28
2022-08-09T06:53:23.322Z,46.33
2022-08-09T06:55:48.406Z,46.08
2022-08-09T07:00:46.651Z,46.31
2022-08-09T07:00:59.606Z,46.23
2022-08-09T07:03:27.921Z,45.88
2022-08-09T07:06:02.739Z,45.79
2022-08-09T07:08:29.048Z,45.60
2022-08-09T07:10:53.828Z,45.71
2022-08-09T07:13:27.660Z,44.69
2022-08-09T07:16:34.791Z,44.88
2022-08-09T07:18:36.073Z,44.32
2022-08-09T07:21:01.999Z,43.19
2022-08-09T07:23:25.381Z,42.87
2022-08-09T07:26:02.461Z,43.37
2022-08-09T07:28:28.304Z,43.03
2022-08-09T07:30:51.754Z,43.07
2022-08-09T07:33:16.704Z,40.97
2022-08-09T07:35:54.119Z,38.95
2022-08-09T07:38:18.330Z,38.67
2022-08-09T07:41:00.971Z,38.25
2022-08-09T07:43:29.094Z,37.86
2022-08-09T07:45:52.468Z,36.21
2022-08-09T07:48:25.718Z,36.14
2022-08-09T07:51:09.351Z,35.74
2022-08-09T07:54:04.194Z,36.22
2022-08-09T07:56:27.248Z,36.81
2022-08-09T07:58:52.151Z,37.11
2022-08-09T08:01:15.586Z,37.39
2022-08-09T08:03:44.847Z,37.07
2022-08-09T08:06:10.257Z,36.57
2022-08-09T08:09:02.747Z,32.46
2022-08-09T08:12:09.741Z,33.39
2022-08-09T08:14:06.305Z,32.07
2022-08-09T08:16:31.794Z,31.84
2022-08-09T08:18:55.591Z,32.79
2022-08-09T08:21:19.018Z,32.94
2022-08-09T08:23:42.515Z,33.43
2022-08-09T08:26:19.106Z,33.51
2022-08-09T08:29:02.719Z,33.25
2022-08-09T08:32:02.238Z,32.73
2022-08-09T08:34:10.708Z,33.28
2022-08-09T08:36:37.655Z,33.03
2022-08-09T08:39:03.483Z,33.31
2022-08-09T08:41:50.838Z,33.03
2022-08-09T08:44:13.819Z,32.91
2022-08-09T08:46:59.893Z,32.32
2022-08-09T08:49:29.512Z,31.97
2022-08-09T08:52:04.213Z,31.30
2022-08-09T08:54:33.911Z,32.09
2022-08-09T08:56:58.158Z,32.07
2022-08-09T08:59:22.044Z,31.86
2022-08-09T09:01:57.387Z,32.38
2022-08-09T09:04:27.440Z,33.09
2022-08-09T09:06:51.071Z,33.35
2022-08-09T09:09:21.207Z,33.74
2022-08-09T09:11:58.169Z,34.08
2022-08-09T09:14:24.552Z,34.03
2022-08-09T09:16:47.842Z,33.74
2022-08-09T09:19:37.076Z,34.11
2022-08-09T09:22:05.225Z,34.31
2022-08-09T09:24:32.398Z,33.82
2022-08-09T09:26:56.141Z,33.44
2022-08-09T09:29:19.829Z,33.38
2022-08-09T09:32:03.688Z,32.93
2022-08-09T09:34:29.030Z,33.29
2022-08-09T09:36:53.884Z,33.38
2022-08-09T09:39:20.008Z,33.37
2022-08-09T09:41:49.029Z,33.39
2022-08-09T09:44:15.659Z,33.13
2022-08-09T09:46:52.126Z,33.04
2022-08-09T09:49:56.451Z,33.13
2022-08-09T09:52:16.259Z,32.83
2022-08-09T09:54:55.192Z,32.50
2022-08-09T09:58:04.183Z,32.49
2022-08-09T10:00:03.567Z,32.10
2022-08-09T10:02:31.313Z,32.18
2022-08-09T10:05:06.509Z,31.89
2022-08-09T10:07:31.694Z,31.45
2022-08-09T10:09:56.365Z,31.43
2022-08-09T10:12:28.559Z,30.59
2022-08-09T10:14:53.793Z,30.42
2022-08-09T10:17:39.151Z,30.26
2022-08-09T10:20:01.767Z,30.37
2022-08-09T10:22:34.719Z,30.10
2022-08-09T10:24:58.310Z,29.71
2022-08-09T10:27:34.505Z,30.34
2022-08-09T10:30:43.641Z,29.80
2022-08-09T10:32:42.789Z,29.43
2022-08-09T10:35:13.803Z,29.55
2022-08-09T10:37:39.090Z,29.64
2022-08-09T10:40:02.596Z,29.20
2022-08-09T10:42:27.100Z,28.74
2022-08-09T10:44:51.295Z,29.09
2022-08-09T10:48:25.834Z,28.38
2022-08-09T10:50:20.985Z,28.68
2022-08-09T10:53:05.603Z,28.83
2022-08-09T10:55:35.686Z,28.48
2022-08-09T10:58:31.063Z,28.29
2022-08-09T11:03:06.450Z,28.18
2022-08-09T11:03:50.195Z,28.46
2022-08-09T11:06:19.693Z,28.31
2022-08-09T11:08:47.206Z,28.05
2022-08-09T11:11:11.387Z,28.12
2022-08-09T11:13:53.798Z,27.87
2022-08-09T11:16:35.000Z,27.61
2022-08-09T11:18:59.336Z,25.97
2022-08-09T11:21:55.096Z,26.86
2022-08-09T11:24:22.684Z,26.21
2022-08-09T11:26:52.198Z,26.11
2022-08-09T11:30:06.119Z,26.22
2022-08-09T11:32:46.439Z,26.78
2022-08-09T11:35:14.597Z,26.53
2022-08-09T11:37:40.950Z,26.97
2022-08-09T11:40:08.183Z,26.89
2022-08-09T11:42:50.467Z,27.31
2022-08-09T11:45:26.388Z,27.41
2022-08-09T11:48:26.080Z,26.84
2022-08-09T11:52:49.360Z,27.23
2022-08-09T11:53:58.799Z,27.24
2022-08-09T11:56:41.886Z,27.11
2022-08-09T11:59:12.324Z,27.11
2022-08-09T12:01:37.646Z,26.96
2022-08-09T12:04:23.595Z,26.83
2022-08-09T12:06:55.839Z,27.20
2022-08-09T12:09:25.520Z,26.77
2022-08-09T12:12:03.249Z,27.67
2022-08-09T12:14:36.937Z,28.52
2022-08-09T12:17:23.383Z,28.94
2022-08-09T12:19:50.925Z,29.18
2022-08-09T12:22:23.504Z,29.69
2022-08-09T12:24:49.584Z,30.02
2022-08-09T12:29:13.971Z,30.17
2022-08-09T12:30:36.965Z,30.84
2022-08-09T12:32:51.985Z,30.86
2022-08-09T12:35:19.456Z,30.92
2022-08-09T12:37:51.875Z,31.13
2022-08-09T12:40:18.090Z,31.17
2022-08-09T12:42:45.835Z,30.85
2022-08-09T12:45:33.387Z,30.58
2022-08-09T12:47:53.371Z,30.71
2022-08-09T12:50:23.543Z,30.73
2022-08-09T12:53:08.262Z,30.66
2022-08-09T12:56:14.497Z,30.22
2022-08-09T12:58:27.431Z,29.89
2022-08-09T13:00:51.710Z,30.24
2022-08-09T13:03:24.448Z,30.34
2022-08-09T13:06:13.191Z,30.48
2022-08-09T13:08:43.477Z,30.00
2022-08-09T13:11:23.348Z,29.76
2022-08-09T13:14:42.307Z,29.71
2022-08-09T13:16:41.903Z,29.38
2022-08-09T13:19:09.240Z,29.60
2022-08-09T13:23:00.419Z,29.27
2022-08-09T13:24:48.391Z,29.94
2022-08-09T13:26:59.959Z,30.44
2022-08-09T13:30:03.156Z,30.80
2022-08-09T13:32:19.458Z,31.06
2022-08-09T13:34:50.251Z,31.60
2022-08-09T13:37:24.619Z,31.39
2022-08-09T13:41:52.251Z,31.51
2022-08-09T13:42:43.022Z,31.66
2022-08-09T13:45:12.431Z,31.47
2022-08-09T13:47:43.988Z,31.47
2022-08-09T13:50:18.056Z,31.49
2022-08-09T13:52:53.538Z,30.73
2022-08-09T13:55:17.729Z,30.31
2022-08-09T13:57:42.793Z,30.04
2022-08-09T14:00:10.025Z,30.14
2022-08-09T14:02:42.636Z,29.50
2022-08-09T14:06:00.374Z,29.65
2022-08-09T14:08:04.466Z,29.07
2022-08-09T14:10:37.245Z,29.12
2022-08-09T14:13:12.168Z,29.43
2022-08-09T14:16:07.165Z,29.20
2022-08-09T14:18:34.143Z,28.90
2022-08-09T14:20:57.533Z,28.70
2022-08-09T14:23:39.919Z,28.64
2022-08-09T14:26:05.948Z,29.15
2022-08-09T14:28:30.032Z,28.51
2022-08-09T14:30:57.444Z,28.33
2022-08-09T14:33:21.533Z,28.28
2022-08-09T14:35:52.851Z,28.53
2022-08-09T14:38:16.747Z,28.50
2022-08-09T14:41:02.347Z,28.53
2022-08-09T14:43:24.183Z,28.48
2022-08-09T14:46:57.106Z,28.45
2022-08-09T14:48:32.192Z,28.89
2022-08-09T14:50:56.258Z,28.66
2022-08-09T14:53:19.653Z,28.92
2022-08-09T14:55:47.887Z,28.96
2022-08-09T14:58:13.575Z,29.48
2022-08-09T15:00:37.124Z,29.26
2022-08-09T15:03:04.021Z,29.39
2022-08-09T15:05:29.565Z,29.35
2022-08-09T15:07:55.972Z,29.67
2022-08-09T15:10:20.439Z,29.88
2022-08-09T15:12:48.176Z,29.50
2022-08-09T15:15:13.396Z,29.78
2022-08-09T15:17:41.965Z,29.77
2022-08-09T15:20:11.798Z,29.68
2022-08-09T15:22:47.043Z,29.72
2022-08-09T15:25:11.128Z,29.61
2022-08-09T15:27:48.122Z,29.80
2022-08-09T15:30:48.740Z,29.97
2022-08-09T15:33:07.249Z,29.76
2022-08-09T15:35:44.417Z,29.80
2022-08-09T15:38:11.814Z,30.07
2022-08-09T15:40:35.431Z,30.32
2022-08-09T15:42:58.835Z,30.38
2022-08-09T15:45:29.568Z,30.64
2022-08-09T15:48:04.314Z,30.48
2022-08-09T15:50:31.181Z,30.63
2022-08-09T15:53:06.928Z,30.60
2022-08-09T15:56:18.083Z,30.92
2022-08-09T15:58:26.530Z,30.44
2022-08-09T16:00:50.603Z,30.21
2022-08-09T16:03:26.565Z,29.81
2022-08-09T16:05:55.942Z,27.37
2022-08-09T16:08:30.657Z,28.35
2022-08-09T16:10:57.004Z,28.28
2022-08-09T16:14:01.909Z,28.17
2022-08-09T16:16:17.259Z,27.53
2022-08-09T16:18:44.938Z,26.59
2022-08-09T16:21:08.733Z,26.97
2022-08-09T16:23:34.594Z,27.07
2022-08-09T16:26:02.769Z,27.17
2022-08-09T16:28:26.262Z,27.15
2022-08-09T16:30:58.438Z,27.56
2022-08-09T16:33:23.381Z,27.77
2022-08-09T16:35:55.822Z,26.98
2022-08-09T16:38:21.828Z,27.80
2022-08-09T16:40:47.947Z,27.07
2022-08-09T16:43:12.648Z,27.22
2022-08-09T16:45:44.398Z,27.17
2022-08-09T16:48:38.946Z,26.83
2022-08-09T16:50:59.708Z,26.84
2022-08-09T16:53:33.973Z,27.33
2022-08-09T16:56:03.666Z,27.06
2022-08-09T16:58:35.778Z,27.19
2022-08-09T17:00:59.383Z,26.96
2022-08-09T17:03:23.017Z,27.41
2022-08-09T17:06:07.160Z,26.57
2022-08-09T17:08:43.817Z,26.88
2022-08-09T17:11:12.978Z,25.69
2022-08-09T17:13:39.854Z,26.12
2022-08-09T17:16:08.381Z,26.51
2022-08-09T17:18:31.697Z,26.42
2022-08-09T17:20:55.021Z,25.96
2022-08-09T17:23:18.354Z,26.66
2022-08-09T17:25:41.599Z,25.04
2022-08-09T17:28:05.786Z,25.63
2022-08-09T17:30:30.530Z,26.21
2022-08-09T17:32:54.342Z,25.47
2022-08-09T17:35:17.627Z,25.15
2022-08-09T17:38:02.453Z,25.14
2022-08-09T17:40:25.942Z,25.24
2022-08-09T17:42:49.594Z,25.25
2022-08-09T17:45:23.709Z,25.34
2022-08-09T17:47:54.816Z,25.32
2022-08-09T17:50:36.059Z,25.56
2022-08-09T17:52:59.902Z,25.72
2022-08-09T17:55:23.419Z,25.95
2022-08-09T17:58:03.221Z,25.80
2022-08-09T18:00:39.093Z,26.16
2022-08-09T18:03:11.657Z,26.18
2022-08-09T18:05:43.364Z,26.38
2022-08-09T18:08:07.339Z,26.43
2022-08-09T18:10:34.574Z,26.42
2022-08-09T18:13:39.306Z,26.52
2022-08-09T18:16:05.097Z,26.24
2022-08-09T18:18:32.849Z,26.26
2022-08-09T18:21:17.754Z,26.12
2022-08-09T18:24:11.361Z,26.16
2022-08-09T18:26:26.039Z,26.25
2022-08-09T18:30:41.058Z,26.19
2022-08-09T18:31:55.346Z,26.32
2022-08-09T18:34:17.961Z,26.45
2022-08-09T18:36:46.530Z,26.51
2022-08-09T18:39:16.163Z,26.74
2022-08-09T18:41:42.355Z,26.95
2022-08-09T18:44:16.815Z,27.20
2022-08-09T18:46:50.296Z,27.22
2022-08-09T18:49:25.424Z,27.37
2022-08-09T18:51:55.361Z,27.52
2022-08-09T18:54:28.690Z,27.88
2022-08-09T18:56:55.128Z,28.03
2022-08-09T18:59:18.544Z,28.12
2022-08-09T19:01:45.849Z,28.28
2022-08-09T19:04:10.529Z,28.36
2022-08-09T19:06:35.113Z,28.45
2022-08-09T19:09:03.342Z,28.55
2022-08-09T19:11:35.314Z,28.62
2022-08-09T19:14:03.218Z,28.59
2022-08-09T19:16:35.924Z,28.80
2022-08-09T19:19:00.390Z,28.55
2022-08-09T19:21:47.765Z,28.31
2022-08-09T19:24:32.920Z,28.41
2022-08-09T19:26:52.967Z,28.72
2022-08-09T19:29:20.596Z,28.83
2022-08-09T19:31:45.872Z,28.89
2022-08-09T19:34:09.561Z,28.97
2022-08-09T19:36:45.666Z,29.20
2022-08-09T19:39:10.630Z,29.35
2022-08-09T19:41:35.652Z,29.78
2022-08-09T19:44:02.656Z,29.94
2022-08-09T19:46:33.980Z,30.11
2022-08-09T19:50:06.884Z,30.58
2022-08-09T19:51:47.934Z,30.53
2022-08-09T19:54:20.032Z,31.05
2022-08-09T19:56:46.203Z,31.27
2022-08-09T19:59:39.523Z,31.29
2022-08-09T20:02:06.365Z,31.77
2022-08-09T20:04:40.830Z,31.95
2022-08-09T20:07:21.212Z,32.08
2022-08-09T20:09:47.349Z,32.40
2022-08-09T20:12:27.019Z,32.54
2022-08-09T20:14:53.410Z,32.73
2022-08-09T20:17:17.263Z,33.10
2022-08-09T20:19:48.750Z,33.30
2022-08-09T20:22:18.471Z,33.38
2022-08-09T20:24:41.838Z,33.33
2022-08-09T20:27:08.296Z,33.48
2022-08-09T20:29:37.864Z,33.70
2022-08-09T20:32:33.021Z,33.87
2022-08-09T20:34:44.915Z,34.02
2022-08-09T20:37:09.198Z,34.12
2022-08-09T20:40:16.121Z,34.12
2022-08-09T20:42:18.022Z,34.39
2022-08-09T20:44:42.490Z,34.15
2022-08-09T20:47:48.218Z,34.35
2022-08-09T20:50:14.781Z,34.23
2022-08-09T20:52:53.656Z,34.10
2022-08-09T20:55:17.030Z,34.00
2022-08-09T20:58:05.278Z,34.21
2022-08-09T21:00:31.694Z,34.28
2022-08-09T21:02:55.442Z,34.31
2022-08-09T21:05:52.734Z,34.31
2022-08-09T21:08:06.239Z,34.37
2022-08-09T21:10:30.581Z,34.43
2022-08-09T21:15:35.076Z,34.61
2022-08-09T21:18:23.477Z,34.68
2022-08-09T21:20:42.226Z,34.78
2022-08-09T21:23:09.283Z,34.75
2022-08-09T21:25:59.729Z,34.86
2022-08-09T21:28:33.318Z,34.73
2022-08-09T21:30:58.619Z,34.97
2022-08-09T21:33:21.833Z,35.22
2022-08-09T21:35:52.493Z,35.30
2022-08-09T21:38:16.213Z,35.32
2022-08-09T21:40:40.875Z,35.49
2022-08-09T21:43:06.153Z,35.51
2022-08-09T21:45:31.047Z,35.63
2022-08-09T21:48:02.415Z,35.83
2022-08-09T21:50:35.941Z,36.32
2022-08-09T21:53:02.400Z,36.39
2022-08-09T21:55:27.167Z,36.58
2022-08-09T21:57:59.134Z,36.85
2022-08-09T22:00:25.793Z,37.38
2022-08-09T22:02:59.324Z,37.53
2022-08-09T22:05:23.765Z,37.50
2022-08-09T22:07:59.638Z,37.88
2022-08-09T22:10:24.241Z,37.97
2022-08-09T22:12:50.013Z,38.27
2022-08-09T22:15:16.893Z,38.07
2022-08-09T22:17:45.987Z,38.36
2022-08-09T22:20:16.766Z,38.72
2022-08-09T22:22:40.521Z,38.83
2022-08-09T22:26:06.969Z,39.40
2022-08-09T22:27:47.995Z,39.20
2022-08-09T22:30:13.102Z,39.73
2022-08-09T22:32:38.377Z,40.27
2022-08-09T22:35:06.875Z,40.17
2022-08-09T22:37:47.819Z,40.59
2022-08-09T22:40:27.073Z,40.97
2022-08-09T22:42:51.038Z,41.06
2022-08-09T22:48:12.672Z,42.03
2022-08-09T22:48:12.888Z,41.47
2022-08-09T22:50:41.063Z,42.19
2022-08-09T22:53:17.866Z,43.01
2022-08-09T22:56:31.032Z,43.73
2022-08-09T22:58:32.628Z,44.36
2022-08-09T23:00:56.780Z,44.69
2022-08-09T23:04:04.644Z,45.07
2022-08-09T23:06:04.561Z,45.67
2022-08-09T23:08:46.304Z,45.79
2022-08-09T23:11:11.040Z,45.83
2022-08-09T23:13:34.282Z,46.58
2022-08-09T23:16:02.190Z,46.81
2022-08-09T23:18:26.913Z,47.33
2022-08-09T23:20:50.198Z,47.70
2022-08-09T23:23:13.448Z,47.51
2022-08-09T23:25:38.167Z,48.26
2022-08-09T23:28:15.336Z,48.35
2022-08-09T23:30:39.412Z,48.70
2022-08-09T23:33:05.428Z,49.23
2022-08-09T23:35:28.702Z,49.33
2022-08-09T23:37:52.086Z,49.46
2022-08-09T23:40:17.011Z,49.92
2022-08-09T23:42:41.729Z,50.83
2022-08-09T23:45:05.635Z,50.89
2022-08-09T23:47:32.048Z,51.28
2022-08-09T23:49:55.376Z,51.05
2022-08-09T23:52:18.661Z,51.38
2022-08-09T23:54:47.602Z,52.14
2022-08-09T23:57:10.884Z,52.32
2022-08-09T23:59:54.726Z,52.74
